Time;durP1;ratioP1;P1;durP2;ratioP2;P2;SDS_P1;SDS_P2;PMS_P1;PMS_P2;Temp;Humidity;BMP_temperature;BMP_pressure;BME280_temperature;BME280_humidity;BME280_pressure;Samples;Min_cycle;Max_cycle;Signal;HPM_P1;HPM_P2
2022/06/23 00:01:01;;;;;;;1.30;0.55;;;;;;;14.89;100.00;99561.91;7393314;19;20026;-85
2022/06/23 00:03:33;;;;;;;2.42;0.50;;;;;;;14.92;100.00;99565.72;7392014;19;20006;-84
2022/06/23 00:06:03;;;;;;;0.25;0.25;;;;;;;14.87;100.00;99570.06;7388942;19;20035;-85
2022/06/23 00:08:29;;;;;;;1.02;0.80;;;;;;;14.84;100.00;99567.50;7390036;19;20024;-85
2022/06/23 00:10:59;;;;;;;1.15;0.52;;;;;;;14.81;100.00;99555.25;7389626;19;20010;-85
2022/06/23 00:13:34;;;;;;;2.42;0.82;;;;;;;14.82;100.00;99556.03;7390100;19;20027;-85
2022/06/23 00:16:02;;;;;;;0.77;0.45;;;;;;;14.86;100.00;99550.94;7391313;19;20142;-85
2022/06/23 00:18:35;;;;;;;1.02;0.60;;;;;;;14.87;100.00;99558.84;7392346;19;20045;-84
2022/06/23 00:21:01;;;;;;;5.28;0.57;;;;;;;14.84;100.00;99553.47;7390856;19;20094;-85
2022/06/23 00:23:32;;;;;;;0.35;0.20;;;;;;;14.82;100.00;99554.00;7392546;19;20022;-85
2022/06/23 00:26:07;;;;;;;1.40;0.50;;;;;;;14.75;100.00;99559.38;7390920;19;20018;-85
2022/06/23 00:28:35;;;;;;;0.57;0.52;;;;;;;14.72;100.00;99555.56;7392184;19;20014;-85
2022/06/23 00:31:04;;;;;;;1.75;0.43;;;;;;;14.63;100.00;99567.03;7389304;19;20030;-85
2022/06/23 00:33:38;;;;;;;0.73;0.70;;;;;;;14.51;100.00;99554.28;7391014;19;20019;-85
2022/06/23 00:36:36;;;;;;;1.85;0.38;;;;;;;14.41;100.00;99558.59;7390620;19;20471;-85
2022/06/23 00:39:05;;;;;;;1.27;0.60;;;;;;;14.32;100.00;99554.03;7395104;19;20021;-85
2022/06/23 00:41:37;;;;;;;1.13;0.68;;;;;;;14.25;100.00;99554.50;7391813;19;20027;-85
2022/06/23 00:44:15;;;;;;;0.50;0.50;;;;;;;14.26;100.00;99539.22;7392658;19;20070;-84
2022/06/23 00:46:47;;;;;;;1.60;0.30;;;;;;;14.26;100.00;99541.25;7390208;19;20503;-85
2022/06/23 00:49:31;;;;;;;1.48;0.52;;;;;;;14.29;100.00;99538.22;7395061;19;20018;-85
2022/06/23 00:52:14;;;;;;;0.80;0.80;;;;;;;14.26;100.00;99532.84;7391329;19;20013;-85
2022/06/23 00:54:45;;;;;;;1.00;0.43;;;;;;;14.29;100.00;99531.88;7391632;19;20023;-85
2022/06/23 00:57:20;;;;;;;;;;;;;;;14.32;100.00;99536.44;7392357;19;20010;-85
2022/06/23 00:59:58;;;;;;;2.40;0.85;;;;;;;14.25;100.00;99534.13;7393918;19;19919;-85
2022/06/23 01:02:35;;;;;;;0.40;0.40;;;;;;;14.25;100.00;99536.94;7394773;19;20014;-85
2022/06/23 01:05:01;;;;;;;0.38;0.38;;;;;;;14.21;100.00;99537.19;7397431;19;20455;-85
2022/06/23 01:07:44;;;;;;;0.35;0.32;;;;;;;14.14;100.00;99532.06;7396181;19;20014;-85
2022/06/23 01:10:19;;;;;;;0.40;0.32;;;;;;;14.10;100.00;99530.78;7403117;19;20036;-85
2022/06/23 01:13:28;;;;;;;0.52;0.40;;;;;;;14.00;100.00;99533.09;7396625;19;20018;-85
2022/06/23 01:16:17;;;;;;;0.30;0.30;;;;;;;13.95;100.00;99524.66;7394948;19;20018;-85
2022/06/23 01:19:42;;;;;;;2.08;0.50;;;;;;;13.92;100.00;99520.88;7399665;19;20018;-85
2022/06/23 01:22:19;;;;;;;1.25;0.20;;;;;;;13.85;100.00;99520.59;7397253;19;20041;-85
2022/06/23 01:25:24;;;;;;;0.30;0.30;;;;;;;13.78;100.00;99526.66;7397301;19;20015;-85
2022/06/23 01:28:01;;;;;;;0.70;0.60;;;;;;;13.75;100.00;99517.28;7395601;19;20013;-85
2022/06/23 01:30:37;;;;;;;2.35;0.20;;;;;;;13.73;100.00;99514.19;7399352;19;20096;-85
2022/06/23 01:33:33;;;;;;;3.33;0.70;;;;;;;13.67;100.00;99516.22;7398738;19;20026;-85
2022/06/23 01:36:11;;;;;;;0.50;0.47;;;;;;;13.65;100.00;99522.31;7396379;19;20047;-85
2022/06/23 01:39:02;;;;;;;0.85;0.40;;;;;;;13.55;100.00;99518.22;7399441;19;20010;-85
2022/06/23 01:41:42;;;;;;;0.50;0.50;;;;;;;13.48;100.00;99517.94;7397274;19;20484;-85
2022/06/23 01:44:26;;;;;;;0.20;0.20;;;;;;;13.41;100.00;99510.78;7398336;19;20014;-85
2022/06/23 01:46:58;;;;;;;0.60;0.60;;;;;;;13.42;100.00;99512.34;7394839;19;20074;-85
2022/06/23 01:49:41;;;;;;;0.70;0.70;;;;;;;13.43;100.00;99513.84;7399639;19;20011;-85
2022/06/23 01:52:21;;;;;;;0.60;0.60;;;;;;;13.41;100.00;99510.78;7397847;19;20348;-85
2022/06/23 01:54:56;;;;;;;2.50;0.80;;;;;;;13.42;100.00;99517.94;7397598;19;20007;-85
2022/06/23 01:57:32;;;;;;;0.55;0.47;;;;;;;13.42;100.00;99506.75;7396052;19;20251;-85
2022/06/23 02:00:01;;;;;;;2.88;0.50;;;;;;;13.37;100.00;99507.47;7401851;19;20010;-85
2022/06/23 02:02:45;;;;;;;0.70;0.40;;;;;;;13.35;100.00;99504.44;7397610;19;20033;-85
2022/06/23 02:05:31;;;;;;;1.15;0.70;;;;;;;13.34;100.00;99511.28;7394516;19;20033;-85
2022/06/23 02:08:09;;;;;;;0.77;0.30;;;;;;;13.35;100.00;99501.63;7395523;19;20045;-85
2022/06/23 02:10:49;;;;;;;0.80;0.80;;;;;;;13.35;100.00;99501.63;7396899;19;20022;-85
2022/06/23 02:13:26;;;;;;;5.45;1.02;;;;;;;13.31;100.00;99495.50;7394728;19;20030;-85
2022/06/23 02:16:02;;;;;;;0.40;0.40;;;;;;;13.31;100.00;99506.69;7395421;19;20029;-85
2022/06/23 02:18:53;;;;;;;0.55;0.55;;;;;;;13.27;100.00;99506.19;7396041;19;20021;-85
2022/06/23 02:21:57;;;;;;;0.85;0.85;;;;;;;13.27;100.00;99500.59;7396198;19;20046;-85
2022/06/23 02:24:29;;;;;;;0.98;0.90;;;;;;;13.31;100.00;99501.09;7395764;19;20348;-85
2022/06/23 02:27:20;;;;;;;3.75;0.40;;;;;;;13.27;100.00;99503.38;7392888;19;20027;-85
2022/06/23 02:30:00;;;;;;;0.50;0.50;;;;;;;13.21;100.00;99502.56;7399551;19;20074;-85
2022/06/23 02:32:40;;;;;;;7.70;0.97;;;;;;;13.16;100.00;99505.34;7396521;19;20078;-85
2022/06/23 02:35:37;;;;;;;2.08;1.02;;;;;;;13.14;100.00;99500.28;7397483;19;20019;-85
2022/06/23 02:38:12;;;;;;;0.77;0.55;;;;;;;13.19;100.00;99493.94;7396975;19;20011;-85
2022/06/23 02:40:41;;;;;;;0.80;0.80;;;;;;;13.21;100.00;99490.66;7396395;19;20010;-85
2022/06/23 02:43:27;;;;;;;4.85;1.00;;;;;;;13.16;100.00;99486.56;7394665;19;20021;-85
2022/06/23 02:46:18;;;;;;;0.30;0.30;;;;;;;13.15;100.00;99484.25;7394146;19;20027;-85
2022/06/23 02:49:06;;;;;;;0.22;0.20;;;;;;;13.13;100.00;99487.56;7395500;19;20026;-85
2022/06/23 02:51:50;;;;;;;1.58;0.70;;;;;;;13.09;100.00;99478.63;7393926;19;20014;-85
2022/06/23 02:54:25;;;;;;;2.72;1.00;;;;;;;13.04;100.00;99482.13;7391716;19;20499;-85
2022/06/23 02:57:08;;;;;;;2.67;1.15;;;;;;;12.98;100.00;99478.56;7393605;19;20405;-85
2022/06/23 03:00:03;;;;;;;0.70;0.38;;;;;;;12.94;100.00;99472.44;7398012;19;20022;-84
2022/06/23 03:02:43;;;;;;;0.77;0.77;;;;;;;12.90;100.00;99471.91;7394496;19;20082;-84
2022/06/23 03:05:30;;;;;;;2.97;1.05;;;;;;;12.87;100.00;99467.31;7394405;19;20014;-85
2022/06/23 03:08:15;;;;;;;0.60;0.60;;;;;;;12.84;100.00;99462.75;7394153;19;20011;-84
2022/06/23 03:11:07;;;;;;;2.58;1.38;;;;;;;12.82;100.00;99465.28;7393825;19;20014;-84
2022/06/23 03:13:44;;;;;;;0.60;0.60;;;;;;;12.85;100.00;99458.66;7394914;19;20022;-84
2022/06/23 03:16:22;;;;;;;0.35;0.30;;;;;;;12.86;100.00;99454.63;7394483;19;20026;-84
2022/06/23 03:19:14;;;;;;;0.30;0.30;;;;;;;12.79;100.00;99461.44;7396264;19;20022;-85
2022/06/23 03:22:01;;;;;;;0.50;0.50;;;;;;;12.81;100.00;99460.94;7393455;19;20105;-85
2022/06/23 03:24:38;;;;;;;4.68;1.20;;;;;;;12.82;100.00;99451.31;7390750;19;20010;-84
2022/06/23 03:27:15;;;;;;;1.27;0.25;;;;;;;12.77;100.00;99450.00;7391874;19;20416;-85
2022/06/23 03:29:59;;;;;;;0.30;0.30;;;;;;;12.85;100.00;99450.28;7397538;19;20022;-84
2022/06/23 03:32:42;;;;;;;0.95;0.38;;;;;;;12.87;100.00;99442.16;7393818;19;20082;-84
2022/06/23 03:35:57;;;;;;;2.17;0.82;;;;;;;12.89;100.00;99442.44;7392466;19;20010;-85
2022/06/23 03:41:36;;;;;;;0.95;0.80;;;;;;;12.84;100.00;99446.72;7389957;19;20101;-85
2022/06/23 03:44:22;;;;;;;0.65;0.65;;;;;;;12.82;100.00;99442.94;7392604;19;20037;-85
2022/06/23 03:46:59;;;;;;;0.60;0.60;;;;;;;12.77;100.00;99446.44;7391575;19;20037;-84
2022/06/23 03:49:38;;;;;;;0.88;0.57;;;;;;;12.70;100.00;99444.13;7394856;19;20014;-84
2022/06/23 03:52:15;;;;;;;4.18;1.13;;;;;;;12.67;100.00;99442.31;7393442;19;20026;-85
2022/06/23 03:54:51;;;;;;;8.23;0.80;;;;;;;12.70;100.00;99450.47;7393646;19;20018;-85
2022/06/23 03:57:26;;;;;;;0.35;0.35;;;;;;;12.67;100.00;99436.72;7392704;19;20460;-84
2022/06/23 04:00:30;;;;;;;1.58;0.60;;;;;;;12.59;100.00;99430.09;7397275;19;20014;-84
2022/06/23 04:03:19;;;;;;;0.68;0.68;;;;;;;12.61;100.00;99438.72;7390178;19;20014;-84
2022/06/23 04:05:54;;;;;;;0.60;0.60;;;;;;;12.56;100.00;99440.22;7390603;19;20026;-84
2022/06/23 04:08:24;;;;;;;3.42;2.17;;;;;;;12.56;100.00;99442.28;7390831;19;20037;-85
2022/06/23 04:10:53;;;;;;;0.85;0.75;;;;;;;12.50;100.00;99431.06;7391017;19;20015;-84
2022/06/23 04:13:38;;;;;;;0.88;0.68;;;;;;;12.54;100.00;99436.44;7391546;19;20025;-84
2022/06/23 04:16:09;;;;;;;0.80;0.75;;;;;;;12.52;100.00;99436.91;7390011;19;20029;-85
2022/06/23 04:18:44;;;;;;;0.98;0.60;;;;;;;12.55;100.00;99440.72;7394478;19;20041;-84
2022/06/23 04:21:18;;;;;;;1.33;0.57;;;;;;;12.62;100.00;99434.69;7391463;19;20484;-85
2022/06/23 04:23:56;;;;;;;0.80;0.45;;;;;;;12.65;100.00;99428.09;7390731;19;20018;-84
2022/06/23 04:26:26;;;;;;;1.65;1.13;;;;;;;12.72;100.00;99438.78;7390468;19;20078;-84
2022/06/23 04:28:57;;;;;;;0.22;0.22;;;;;;;12.71;100.00;99442.88;7393118;19;20011;-84
2022/06/23 04:31:36;;;;;;;0.50;0.50;;;;;;;12.72;100.00;99438.78;7390844;19;20019;-84
2022/06/23 04:34:03;;;;;;;0.52;0.52;;;;;;;12.70;100.00;99438.53;7395469;19;20014;-84
2022/06/23 04:36:42;;;;;;;2.45;0.55;;;;;;;12.75;100.00;99437.81;7390579;19;20022;-84
2022/06/23 04:39:27;;;;;;;2.17;0.60;;;;;;;12.76;100.00;99445.69;7395192;19;20010;-84
2022/06/23 04:41:59;;;;;;;0.47;0.47;;;;;;;12.81;100.00;99442.16;7390458;19;20010;-84
2022/06/23 04:44:33;;;;;;;0.80;0.80;;;;;;;12.84;100.00;99437.59;7391015;19;20023;-84
2022/06/23 04:47:07;;;;;;;0.82;0.52;;;;;;;12.93;100.00;99428.97;7390325;19;20014;-85
2022/06/23 04:49:56;;;;;;;0.93;0.93;;;;;;;13.00;100.00;99439.69;7393096;19;20023;-84
2022/06/23 04:52:34;;;;;;;1.95;0.50;;;;;;;13.03;100.00;99435.91;7390975;19;20038;-85
2022/06/23 04:55:19;;;;;;;0.77;0.38;;;;;;;13.05;100.00;99438.97;7392214;19;20010;-85
2022/06/23 04:57:54;;;;;;;0.65;0.40;;;;;;;13.14;100.00;99435.19;7391058;19;20019;-84
2022/06/23 05:00:37;;;;;;;1.00;0.77;;;;;;;13.15;100.00;99434.69;7390357;19;20078;-84
2022/06/23 05:03:40;;;;;;;2.15;0.57;;;;;;;13.22;100.00;99431.41;7391360;19;20010;-84
2022/06/23 05:06:37;;;;;;;0.73;0.40;;;;;;;13.26;100.00;99433.97;7386709;19;20033;-84
2022/06/23 05:09:11;;;;;;;3.35;0.90;;;;;;;13.36;100.00;99438.06;7390407;19;20074;-84
2022/06/23 05:12:02;;;;;;;2.03;1.15;;;;;;;13.42;100.00;99433.25;7388845;19;20015;-85
2022/06/23 05:14:31;;;;;;;0.85;0.85;;;;;;;13.48;100.00;99432.00;7389190;19;20014;-84
2022/06/23 05:17:24;;;;;;;1.30;1.02;;;;;;;13.51;100.00;99428.16;7388415;19;20021;-85
2022/06/23 05:20:01;;;;;;;0.80;0.80;;;;;;;13.58;100.00;99430.47;7393387;19;20074;-84
2022/06/23 05:22:38;;;;;;;0.52;0.52;;;;;;;13.62;100.00;99425.38;7392394;19;20325;-85
2022/06/23 05:25:34;;;;;;;0.60;0.60;;;;;;;13.71;100.00;99421.56;7392182;19;20018;-84
2022/06/23 05:28:05;;;;;;;1.08;0.63;;;;;;;13.79;100.00;99427.44;7392243;19;20029;-85
2022/06/23 05:30:41;;;;;;;2.58;0.88;;;;;;;13.93;100.00;99424.41;7393883;19;20043;-84
2022/06/23 05:33:29;;;;;;;0.82;0.80;;;;;;;14.01;100.00;99433.06;7394109;19;20023;-84
2022/06/23 05:36:05;;;;;;;0.90;0.73;;;;;;;14.10;100.00;99432.78;7392156;19;20025;-84
2022/06/23 05:38:52;;;;;;;0.50;0.50;;;;;;;14.20;100.00;99420.06;7392013;19;20032;-86
2022/06/23 05:41:42;;;;;;;1.45;0.93;;;;;;;14.31;100.00;99428.47;7391560;19;20479;-85
2022/06/23 05:44:42;;;;;;;3.28;0.45;;;;;;;14.44;100.00;99420.31;7391472;19;20078;-85
2022/06/23 05:47:13;;;;;;;1.63;0.90;;;;;;;14.50;100.00;99423.84;7389865;19;20127;-85
2022/06/23 05:49:43;;;;;;;1.70;0.90;;;;;;;14.55;100.00;99414.69;7401255;19;20030;-85
2022/06/23 05:52:16;;;;;;;0.75;0.75;;;;;;;14.59;100.00;99415.19;7396733;19;20613;-84
2022/06/23 05:54:49;;;;;;;0.63;0.57;;;;;;;14.68;100.00;99417.72;7398837;19;20497;-85
2022/06/23 05:57:29;;;;;;;7.25;1.40;;;;;;;14.70;100.00;99415.16;7395279;19;20011;-85
2022/06/23 06:00:08;;;;;;;2.15;1.27;;;;;;;14.78;100.00;99410.53;7402134;19;20039;-85
2022/06/23 06:02:59;;;;;;;1.02;0.73;;;;;;;14.86;100.00;99411.50;7398233;19;20078;-84
2022/06/23 06:05:36;;;;;;;4.93;1.67;;;;;;;15.01;100.00;99406.34;7396660;19;20007;-85
2022/06/23 06:08:11;;;;;;;1.40;1.15;;;;;;;15.15;100.00;99405.28;7396519;19;20022;-85
2022/06/23 06:10:38;;;;;;;0.93;0.93;;;;;;;15.26;100.00;99398.06;7397266;19;20090;-84
2022/06/23 06:13:12;;;;;;;1.15;0.88;;;;;;;15.30;100.00;99404.16;7395683;19;20034;-85
2022/06/23 06:15:44;;;;;;;2.13;1.02;;;;;;;15.43;100.00;99395.91;7394780;19;20015;-84
2022/06/23 06:18:32;;;;;;;3.72;1.20;;;;;;;15.61;100.00;99400.94;7396356;19;20018;-85
2022/06/23 06:21:03;;;;;;;1.88;0.90;;;;;;;15.71;100.00;99397.28;7394591;19;20035;-85
2022/06/23 06:23:44;;;;;;;4.13;1.33;;;;;;;15.78;100.00;99398.78;7396683;19;20019;-84
2022/06/23 06:26:20;;;;;;;2.65;0.88;;;;;;;15.96;100.00;99398.09;7394880;19;20046;-85
2022/06/23 06:28:46;;;;;;;1.85;1.13;;;;;;;16.09;100.00;99397.50;7396199;19;20468;-85
2022/06/23 06:31:22;;;;;;;3.85;0.50;;;;;;;16.19;100.00;99401.47;7392932;19;20025;-85
2022/06/23 06:33:54;;;;;;;1.27;0.43;;;;;;;16.29;100.00;99402.66;7397091;19;20022;-85
2022/06/23 06:36:24;;;;;;;7.78;1.77;;;;;;;16.39;100.00;99404.63;7392379;19;20035;-84
2022/06/23 06:38:51;;;;;;;4.63;1.35;;;;;;;16.57;100.00;99406.72;7398259;19;20014;-85
2022/06/23 06:41:17;;;;;;;4.03;1.23;;;;;;;16.75;100.00;99398.88;7396262;19;20014;-85
2022/06/23 06:43:44;;;;;;;3.30;1.17;;;;;;;16.89;100.00;99394.88;7394696;19;20035;-85
2022/06/23 06:46:10;;;;;;;3.80;1.55;;;;;;;17.06;100.00;99390.56;7394164;19;20025;-85
2022/06/23 06:48:38;;;;;;;2.00;1.17;;;;;;;17.33;100.00;99397.84;7395142;19;20019;-84
2022/06/23 06:51:10;;;;;;;2.10;0.98;;;;;;;17.46;100.00;99397.16;7394206;19;20051;-85
2022/06/23 06:53:41;;;;;;;0.90;0.90;;;;;;;17.47;100.00;99390.25;7394066;19;20019;-85
2022/06/23 06:56:19;;;;;;;3.97;1.33;;;;;;;17.53;100.00;99387.38;7394120;19;20037;-85
2022/06/23 06:59:00;;;;;;;9.18;1.38;;;;;;;17.64;100.00;99390.00;7398737;19;20014;-85
2022/06/23 07:01:27;;;;;;;5.78;1.35;;;;;;;17.74;100.00;99380.63;7394955;19;20022;-85
2022/06/23 07:03:55;;;;;;;4.13;0.63;;;;;;;17.88;100.00;99379.38;7396245;19;20022;-85
2022/06/23 07:06:40;;;;;;;0.63;0.45;;;;;;;18.05;100.00;99377.03;7393338;19;20023;-84
2022/06/23 07:09:25;;;;;;;1.83;0.77;;;;;;;18.27;100.00;99375.88;7395810;19;20037;-84
2022/06/23 07:12:10;;;;;;;4.93;0.60;;;;;;;18.39;100.00;99382.84;7393868;19;20029;-85
2022/06/23 07:14:47;;;;;;;4.43;1.45;;;;;;;18.57;100.00;99381.25;7393613;19;20018;-85
2022/06/23 07:17:22;;;;;;;5.90;0.80;;;;;;;18.72;100.00;99373.00;7392957;19;20019;-85
2022/06/23 07:20:19;;;;;;;3.38;0.68;;;;;;;18.92;100.00;99363.88;7399088;19;20456;-85
2022/06/23 07:23:09;;;;;;;6.40;1.15;;;;;;;19.05;100.00;99372.31;7395780;19;20033;-85
2022/06/23 07:25:45;;;;;;;4.13;1.63;;;;;;;19.29;100.00;99365.63;7394401;19;20025;-86
2022/06/23 07:28:28;;;;;;;1.40;0.43;;;;;;;19.33;100.00;99364.00;7392442;19;20017;-85
2022/06/23 07:31:12;;;;;;;0.57;0.45;;;;;;;19.55;100.00;99363.50;7392785;19;20022;-84
2022/06/23 07:34:10;;;;;;;5.07;0.73;;;;;;;20.04;100.00;99359.97;7393314;19;20293;-86
2022/06/23 07:36:45;;;;;;;1.40;0.90;;;;;;;20.15;100.00;99368.19;7391097;19;20380;-86
2022/06/23 07:39:20;;;;;;;1.60;0.85;;;;;;;20.21;100.00;99366.00;7397891;19;20006;-85
2022/06/23 07:41:58;;;;;;;1.55;0.55;;;;;;;20.39;100.00;99362.19;7395385;19;20519;-85
2022/06/23 07:44:39;;;;;;;2.78;0.73;;;;;;;20.38;100.00;99355.75;7392863;19;20420;-86
2022/06/23 07:47:06;;;;;;;2.45;0.65;;;;;;;20.45;100.00;99362.00;7394142;19;20011;-85
2022/06/23 07:49:33;;;;;;;3.42;0.70;;;;;;;20.57;100.00;99355.50;7398608;19;20006;-85
2022/06/23 07:52:01;;;;;;;4.97;0.50;;;;;;;20.69;100.00;99351.03;7395267;19;20477;-85
2022/06/23 07:54:29;;;;;;;0.65;0.45;;;;;;;20.91;100.00;99350.41;7398741;19;20015;-85
2022/06/23 07:56:55;;;;;;;2.83;0.90;;;;;;;21.02;100.00;99354.97;7397461;19;20038;-86
2022/06/23 07:59:29;;;;;;;3.95;0.68;;;;;;;21.12;100.00;99353.91;7424912;19;20021;-84
2022/06/23 08:02:09;;;;;;;6.85;0.68;;;;;;;21.26;100.00;99350.94;7426538;19;20009;-85
2022/06/23 08:04:58;;;;;;;1.23;0.70;;;;;;;21.36;100.00;99346.22;7393032;19;20020;-85
2022/06/23 08:07:26;;;;;;;1.55;0.68;;;;;;;21.52;100.00;99344.97;7390725;19;20017;-85
2022/06/23 08:09:57;;;;;;;1.63;0.60;;;;;;;21.74;100.00;99342.16;7395896;19;20014;-85
2022/06/23 08:12:54;;;;;;;1.15;0.10;;;;;;;21.88;100.00;99339.94;7390577;19;20031;-85
2022/06/23 08:18:53;;;;;;;0.75;0.38;;;;;;;22.01;100.00;99339.75;7395151;19;20011;-85
2022/06/23 08:21:24;;;;;;;1.70;0.35;;;;;;;22.25;100.00;99329.91;7393822;19;20368;-85
2022/06/23 08:24:00;;;;;;;;;;;;;;;22.49;100.00;99343.47;7393390;19;20014;-85
2022/06/23 08:26:26;;;;;;;2.75;0.60;;;;;;;22.69;100.00;99333.25;7390786;19;19918;-85
2022/06/23 08:28:57;;;;;;;0.63;0.40;;;;;;;22.91;100.00;99326.75;7393109;19;20025;-85
2022/06/23 08:31:26;;;;;;;1.45;0.17;;;;;;;23.05;100.00;99336.50;7389740;19;20006;-85
2022/06/23 08:33:52;;;;;;;2.20;0.38;;;;;;;23.24;100.00;99336.78;7392129;19;20015;-85
2022/06/23 08:36:48;;;;;;;0.70;0.40;;;;;;;23.49;100.00;99326.28;7390789;19;20027;-85
2022/06/23 08:39:24;;;;;;;1.38;0.22;;;;;;;23.67;100.00;99322.16;7395152;19;20055;-86
2022/06/23 08:41:59;;;;;;;1.45;0.47;;;;;;;23.90;100.00;99322.75;7391587;19;20011;-85
2022/06/23 08:44:45;;;;;;;2.60;0.65;;;;;;;24.03;100.00;99325.31;7392942;19;20018;-85
2022/06/23 08:47:20;;;;;;;1.67;0.10;;;;;;;24.14;100.00;99309.88;7390840;19;20011;-86
2022/06/23 08:49:55;;;;;;;1.00;0.40;;;;;;;24.21;100.00;99316.84;7397532;19;20010;-86
2022/06/23 08:52:38;;;;;;;2.33;0.63;;;;;;;24.22;100.00;99319.09;7393981;19;20070;-86
2022/06/23 08:55:10;;;;;;;1.48;0.40;;;;;;;24.35;100.00;99315.16;7394049;19;20544;-86
2022/06/23 08:57:46;;;;;;;1.00;0.13;;;;;;;24.41;100.00;99318.50;7390664;19;20010;-85
2022/06/23 09:00:27;;;;;;;1.58;0.55;;;;;;;24.52;100.00;99315.16;7396422;19;20017;-87
2022/06/23 09:03:01;;;;;;;1.10;0.40;;;;;;;24.75;100.00;99318.56;7391706;19;20021;-86
2022/06/23 09:05:41;;;;;;;1.35;0.30;;;;;;;24.91;100.00;99325.56;7391039;19;20026;-85
2022/06/23 09:08:27;;;;;;;8.18;0.52;;;;;;;25.08;100.00;99317.00;7391642;19;20026;-85
2022/06/23 09:11:39;;;;;;;6.55;0.93;;;;;;;25.11;100.00;99307.28;7392112;19;20031;-85
2022/06/23 09:14:42;;;;;;;6.22;0.47;;;;;;;25.31;100.00;99303.22;7390618;19;20575;-86
2022/06/23 09:17:31;;;;;;;2.63;0.20;;;;;;;25.48;100.00;99302.41;7389668;19;20029;-86
2022/06/23 09:20:10;;;;;;;1.40;0.22;;;;;;;25.64;100.00;99305.81;7395108;19;20023;-86
2022/06/23 09:23:25;;;;;;;2.03;0.52;;;;;;;25.86;100.00;99302.56;7391308;19;20033;-85
2022/06/23 09:26:05;;;;;;;0.20;0.10;;;;;;;25.95;100.00;99298.25;7395662;19;20032;-86
2022/06/23 09:28:55;;;;;;;2.17;0.30;;;;;;;25.91;100.00;99295.09;7395867;19;20018;-85
2022/06/23 09:31:42;;;;;;;2.15;0.45;;;;;;;25.83;100.00;99291.63;7395973;19;20082;-86
2022/06/23 09:34:18;;;;;;;0.43;0.25;;;;;;;25.86;100.00;99287.56;7398048;19;20019;-85
2022/06/23 09:36:44;;;;;;;0.68;0.20;;;;;;;25.98;100.00;99285.66;7396939;19;20019;-85
2022/06/23 09:39:45;;;;;;;2.88;0.40;;;;;;;26.06;100.00;99286.25;7399264;19;20043;-86
2022/06/23 09:42:23;;;;;;;;;;;;;;;26.22;100.00;99281.81;7396895;19;20025;-86
2022/06/23 09:45:10;;;;;;;1.40;0.20;;;;;;;26.17;100.00;99285.72;7395933;19;19923;-85
2022/06/23 09:47:58;;;;;;;1.23;0.20;;;;;;;26.26;100.00;99282.91;7394545;19;20018;-87
2022/06/23 09:50:52;;;;;;;0.17;0.10;;;;;;;26.30;100.00;99276.72;7396382;19;20043;-86
2022/06/23 09:53:37;;;;;;;0.30;0.10;;;;;;;26.45;100.00;99281.38;7396370;19;20032;-86
2022/06/23 09:56:12;;;;;;;0.63;0.20;;;;;;;26.59;100.00;99282.47;7395870;19;20022;-86
2022/06/23 09:59:10;;;;;;;0.85;0.00;;;;;;;26.71;100.00;99272.69;7398445;19;20003;-85
2022/06/23 10:01:40;;;;;;;3.05;0.20;;;;;;;26.82;100.00;99274.97;7398319;19;20131;-86
2022/06/23 10:04:31;;;;;;;2.03;0.10;;;;;;;26.86;100.00;99265.94;7397968;19;20074;-86
2022/06/23 10:07:36;;;;;;;1.50;0.52;;;;;;;27.03;100.00;99265.75;7394479;19;20011;-87
2022/06/23 10:10:11;;;;;;;1.65;0.20;;;;;;;27.10;100.00;99258.34;7402880;19;20011;-85
2022/06/23 10:12:53;;;;;;;0.50;0.32;;;;;;;27.07;100.00;99265.31;7396068;19;20011;-86
2022/06/23 10:15:27;;;;;;;0.68;0.17;;;;;;;27.09;100.00;99259.72;7397526;19;20022;-87
2022/06/23 10:18:06;;;;;;;0.40;0.10;;;;;;;27.19;100.00;99260.44;7394088;19;20022;-85
2022/06/23 10:20:34;;;;;;;8.20;0.55;;;;;;;27.28;100.00;99256.81;7396039;19;20027;-86
2022/06/23 10:23:03;;;;;;;2.08;0.28;;;;;;;27.34;100.00;99257.25;7396096;19;20014;-85
2022/06/23 10:25:48;;;;;;;0.65;0.25;;;;;;;27.34;100.00;99257.25;7396760;19;20460;-86
2022/06/23 10:28:39;;;;;;;0.32;0.10;;;;;;;27.53;100.00;99242.88;7396968;19;20025;-85
2022/06/23 10:31:14;;;;;;;1.48;0.15;;;;;;;27.59;100.00;99251.91;7396039;19;20018;-86
2022/06/23 10:34:13;;;;;;;2.13;0.35;;;;;;;27.67;100.00;99246.75;7396425;19;20011;-86
2022/06/23 10:37:13;;;;;;;0.75;0.10;;;;;;;27.78;100.00;99251.81;7395013;19;20010;-86
2022/06/23 10:40:10;;;;;;;2.88;0.50;;;;;;;27.91;100.00;99247.69;7398962;19;20025;-86
2022/06/23 10:42:58;;;;;;;0.40;0.10;;;;;;;27.94;100.00;99235.75;7395566;19;20031;-85
2022/06/23 10:45:56;;;;;;;0.90;0.10;;;;;;;28.06;100.00;99233.75;7396664;19;20111;-86
2022/06/23 10:48:33;;;;;;;0.20;0.08;;;;;;;28.13;100.00;99229.91;7396390;19;20023;-86
2022/06/23 10:51:02;;;;;;;1.45;0.20;;;;;;;28.14;100.00;99230.69;7396801;19;20026;-86
2022/06/23 10:54:05;;;;;;;1.50;0.20;;;;;;;28.26;100.00;99226.50;7396419;19;20019;-86
2022/06/23 10:56:47;;;;;;;0.68;0.20;;;;;;;28.35;100.00;99217.09;7393572;19;20480;-86
2022/06/23 10:59:25;;;;;;;2.83;0.30;;;;;;;28.56;100.00;99215.56;7399379;19;20091;-86
2022/06/23 11:01:57;;;;;;;1.02;0.30;;;;;;;28.64;100.00;99213.25;7395835;19;20037;-86
2022/06/23 11:05:01;;;;;;;0.77;0.10;;;;;;;28.76;100.00;99216.94;7396310;19;20013;-86
2022/06/23 11:07:40;;;;;;;3.85;0.40;;;;;;;28.78;98.80;99205.59;7391851;19;20033;-86
2022/06/23 11:10:25;;;;;;;1.00;0.05;;;;;;;28.80;100.00;99197.88;7398222;19;20019;-87
2022/06/23 11:13:13;;;;;;;1.17;0.20;;;;;;;28.81;97.43;99198.59;7395710;19;20535;-85
2022/06/23 11:16:16;;;;;;;1.10;0.20;;;;;;;28.90;93.81;99204.25;7393341;19;20017;-86
2022/06/23 11:19:04;;;;;;;0.50;0.30;;;;;;;29.08;92.92;99202.56;7396707;19;20118;-86
2022/06/23 11:21:57;;;;;;;1.70;0.20;;;;;;;29.21;91.70;99192.63;7394036;19;20081;-86
2022/06/23 11:24:45;;;;;;;0.43;0.20;;;;;;;29.31;89.97;99181.75;7394868;19;20026;-87
2022/06/23 11:27:23;;;;;;;1.08;0.17;;;;;;;29.43;92.86;99173.16;7393730;19;20014;-87
2022/06/23 11:30:22;;;;;;;0.20;0.10;;;;;;;29.63;90.51;99166.53;7396642;19;20010;-87
2022/06/23 11:33:10;;;;;;;1.02;0.20;;;;;;;29.63;91.35;99169.41;7392280;19;20018;-87
2022/06/23 11:36:09;;;;;;;4.47;0.30;;;;;;;29.62;87.46;99165.03;7393427;19;20021;-86
2022/06/23 11:39:08;;;;;;;0.47;0.10;;;;;;;29.72;90.62;99157.03;7396260;19;20018;-86
2022/06/23 11:41:50;;;;;;;4.32;0.57;;;;;;;29.61;90.26;99157.03;7393253;19;20114;-87
2022/06/23 11:44:41;;;;;;;2.67;0.22;;;;;;;29.50;92.79;99164.28;7393328;19;20018;-86
2022/06/23 11:47:19;;;;;;;2.60;0.40;;;;;;;29.06;91.86;99150.78;7391585;19;20011;-87
2022/06/23 11:50:39;;;;;;;0.50;0.10;;;;;;;28.52;93.61;99159.50;7398242;19;20006;-86
2022/06/23 11:53:25;;;;;;;1.55;0.10;;;;;;;28.24;99.06;99157.63;7390298;19;20492;-87
2022/06/23 11:56:45;;;;;;;2.10;0.30;;;;;;;28.17;100.00;99155.00;7392990;19;20015;-86
2022/06/23 11:59:30;;;;;;;3.33;1.00;;;;;;;28.11;96.65;99141.03;7393349;19;20133;-86
2022/06/23 12:01:56;;;;;;;2.97;0.93;;;;;;;28.34;98.13;99152.59;7393413;19;20460;-86
2022/06/23 12:04:33;;;;;;;2.20;0.15;;;;;;;28.52;96.46;99148.03;7393342;19;20018;-86
2022/06/23 12:07:18;;;;;;;0.40;0.20;;;;;;;28.96;97.42;99147.28;7392605;19;20050;-86
2022/06/23 12:09:49;;;;;;;1.63;0.38;;;;;;;29.23;96.82;99152.59;7397601;19;20010;-86
2022/06/23 12:12:16;;;;;;;1.52;0.35;;;;;;;29.59;94.39;99143.31;7393711;19;20081;-86
2022/06/23 12:14:42;;;;;;;2.20;0.45;;;;;;;29.87;94.19;99139.31;7393281;19;20023;-87
2022/06/23 12:17:14;;;;;;;0.85;0.10;;;;;;;30.06;95.72;99132.50;7390718;19;20026;-86
2022/06/23 12:19:56;;;;;;;0.32;0.20;;;;;;;29.97;90.97;99134.16;7396941;19;20018;-86
2022/06/23 12:22:44;;;;;;;0.77;0.10;;;;;;;30.04;95.30;99135.25;7391890;19;20014;-86
2022/06/23 12:25:42;;;;;;;0.80;0.10;;;;;;;30.01;86.60;99132.91;7392617;19;20010;-86
2022/06/23 12:28:21;;;;;;;3.05;0.32;;;;;;;29.96;88.01;99135.53;7392124;19;20021;-85
2022/06/23 12:31:02;;;;;;;7.70;0.57;;;;;;;29.83;86.68;99132.56;7391215;19;20018;-86
2022/06/23 12:33:53;;;;;;;0.28;0.13;;;;;;;29.80;84.91;99128.81;7394364;19;20014;-85
2022/06/23 12:36:29;;;;;;;3.42;0.38;;;;;;;29.89;87.11;99130.06;7390243;19;20014;-86